createdAt,value
2023-05-07T00:00:16.769Z,16.27
2023-05-07T00:01:20.093Z,16.13
2023-05-07T00:02:22.034Z,14.23
2023-05-07T00:03:23.863Z,17.05
2023-05-07T00:04:26.028Z,15.40
2023-05-07T00:05:27.749Z,15.93
2023-05-07T00:06:30.202Z,15.05
2023-05-07T00:07:31.978Z,15.40
2023-05-07T00:08:33.576Z,16.73
2023-05-07T00:09:35.305Z,15.50
2023-05-07T00:10:37.231Z,14.70
2023-05-07T00:11:38.980Z,15.00
2023-05-07T00:12:42.045Z,16.00
2023-05-07T00:13:43.695Z,16.70
2023-05-07T00:14:45.269Z,16.50
2023-05-07T00:15:46.939Z,15.60
2023-05-07T00:16:48.571Z,16.30
2023-05-07T00:17:50.344Z,16.67
2023-05-07T00:18:53.771Z,16.20
2023-05-07T00:19:55.349Z,16.63
2023-05-07T00:20:57.235Z,15.00
2023-05-07T00:21:59.156Z,16.23
2023-05-07T00:23:00.714Z,15.77
2023-05-07T00:24:02.390Z,14.75
2023-05-07T00:25:04.415Z,15.50
2023-05-07T00:26:06.104Z,15.45
2023-05-07T00:27:07.876Z,16.55
2023-05-07T00:28:09.458Z,15.73
2023-05-07T00:29:11.186Z,16.17
2023-05-07T00:30:13.221Z,15.82
2023-05-07T00:31:14.932Z,14.95
2023-05-07T00:32:16.676Z,16.10
2023-05-07T00:33:18.284Z,15.73
2023-05-07T00:34:20.093Z,16.60
2023-05-07T00:35:21.784Z,15.50
2023-05-07T00:36:23.420Z,16.40
2023-05-07T00:37:25.009Z,17.15
2023-05-07T00:38:26.589Z,17.40
2023-05-07T00:39:28.192Z,17.10
2023-05-07T00:40:29.793Z,17.85
2023-05-07T00:41:34.251Z,16.95
2023-05-07T00:42:35.803Z,18.42
2023-05-07T00:43:37.377Z,16.33
2023-05-07T00:44:38.955Z,18.55
2023-05-07T00:45:40.913Z,16.65
2023-05-07T00:46:42.646Z,16.83
2023-05-07T00:47:44.565Z,17.63
2023-05-07T00:48:46.452Z,17.05
2023-05-07T00:49:48.096Z,16.92
2023-05-07T00:50:49.811Z,17.35
2023-05-07T00:51:51.726Z,16.37
2023-05-07T00:52:53.754Z,16.00
2023-05-07T00:53:55.476Z,16.88
2023-05-07T00:54:57.179Z,17.38
2023-05-07T00:55:58.844Z,17.83
2023-05-07T00:57:01.240Z,17.25
2023-05-07T00:58:02.893Z,17.27
2023-05-07T00:59:04.859Z,16.80
2023-05-07T01:00:08.773Z,17.02
2023-05-07T01:01:10.672Z,17.70
2023-05-07T01:02:12.605Z,19.70
2023-05-07T01:03:14.233Z,17.17
2023-05-07T01:04:16.415Z,19.17
2023-05-07T01:05:20.221Z,18.65
2023-05-07T01:06:23.794Z,16.00
2023-05-07T01:07:25.832Z,19.33
2023-05-07T01:08:30.378Z,16.38
2023-05-07T01:09:32.448Z,19.90
2023-05-07T01:10:34.379Z,17.23
2023-05-07T01:11:36.185Z,19.02
2023-05-07T01:12:39.859Z,19.23
2023-05-07T01:13:42.532Z,18.52
2023-05-07T01:14:44.152Z,17.48
2023-05-07T01:15:46.243Z,17.65
2023-05-07T01:16:49.184Z,17.55
2023-05-07T01:17:50.946Z,17.92
2023-05-07T01:18:52.715Z,17.45
2023-05-07T01:19:54.448Z,17.98
2023-05-07T01:20:59.236Z,18.52
2023-05-07T01:22:05.201Z,18.23
2023-05-07T01:23:08.051Z,16.95
2023-05-07T01:24:10.185Z,18.67
2023-05-07T01:25:11.944Z,18.30
2023-05-07T01:26:13.852Z,16.80
2023-05-07T01:27:15.455Z,17.35
2023-05-07T01:28:17.506Z,18.60
2023-05-07T01:29:19.068Z,17.50
2023-05-07T01:30:22.422Z,18.05
2023-05-07T01:31:25.382Z,18.20
2023-05-07T01:32:51.966Z,17.23
2023-05-07T01:33:54.784Z,16.85
2023-05-07T01:34:58.327Z,17.55
2023-05-07T01:36:03.146Z,17.77
2023-05-07T01:37:04.833Z,16.88
2023-05-07T01:38:07.784Z,16.25
2023-05-07T01:39:10.625Z,16.15
2023-05-07T01:40:12.806Z,17.63
2023-05-07T01:41:14.794Z,16.58
2023-05-07T01:42:16.449Z,18.10
2023-05-07T01:43:18.550Z,17.20
2023-05-07T01:44:20.833Z,18.63
2023-05-07T01:45:22.704Z,16.90
2023-05-07T01:46:25.589Z,16.73
2023-05-07T01:47:27.835Z,17.88
2023-05-07T01:48:29.941Z,15.85
2023-05-07T01:49:31.599Z,17.75
2023-05-07T01:50:34.499Z,17.23
2023-05-07T01:51:37.079Z,17.02
2023-05-07T01:52:39.740Z,16.48
2023-05-07T01:53:41.677Z,17.38
2023-05-07T01:54:43.599Z,16.48
2023-05-07T01:55:46.186Z,16.77
2023-05-07T01:56:49.864Z,17.50
2023-05-07T01:57:51.479Z,16.23
2023-05-07T01:58:53.334Z,17.15
2023-05-07T01:59:54.889Z,17.15
2023-05-07T02:00:56.438Z,16.77
2023-05-07T02:01:58.003Z,16.50
2023-05-07T02:02:59.936Z,16.42
2023-05-07T02:04:01.688Z,16.58
2023-05-07T02:05:03.398Z,16.80
2023-05-07T02:06:05.133Z,16.25
2023-05-07T02:07:06.767Z,15.93
2023-05-07T02:08:08.461Z,17.75
2023-05-07T02:09:10.036Z,16.63
2023-05-07T02:10:11.833Z,16.50
2023-05-07T02:11:13.692Z,14.88
2023-05-07T02:12:15.327Z,15.38
2023-05-07T02:13:17.087Z,17.10
2023-05-07T02:14:18.845Z,16.33
2023-05-07T02:15:20.393Z,16.27
2023-05-07T02:16:22.832Z,16.27
2023-05-07T02:17:24.476Z,16.98
2023-05-07T02:18:26.448Z,16.60
2023-05-07T02:19:28.014Z,15.60
2023-05-07T02:20:29.676Z,17.83
2023-05-07T02:21:31.384Z,16.95
2023-05-07T02:22:32.968Z,16.15
2023-05-07T02:23:34.605Z,16.45
2023-05-07T02:24:36.388Z,15.63
2023-05-07T02:25:37.958Z,14.70
2023-05-07T02:26:40.477Z,14.80
2023-05-07T02:27:42.039Z,16.15
2023-05-07T02:28:43.616Z,15.77
2023-05-07T02:29:45.336Z,16.23
2023-05-07T02:30:46.870Z,15.07
2023-05-07T02:31:51.723Z,15.65
2023-05-07T02:32:53.469Z,16.17
2023-05-07T02:33:55.118Z,16.08
2023-05-07T02:34:56.741Z,15.93
2023-05-07T02:36:05.616Z,15.88
2023-05-07T02:37:07.167Z,16.58
2023-05-07T02:38:11.494Z,16.70
2023-05-07T02:39:16.501Z,15.63
2023-05-07T02:40:18.122Z,15.80
2023-05-07T02:41:19.772Z,16.48
2023-05-07T02:42:21.341Z,16.27
2023-05-07T02:43:22.875Z,15.55
2023-05-07T02:44:24.493Z,15.27
2023-05-07T02:45:26.488Z,16.33
2023-05-07T02:46:28.101Z,16.80
2023-05-07T02:47:29.744Z,14.77
2023-05-07T02:48:31.528Z,15.98
2023-05-07T02:49:33.086Z,16.05
2023-05-07T02:50:34.614Z,15.93
2023-05-07T02:51:36.175Z,14.82
2023-05-07T02:52:37.763Z,15.00
2023-05-07T02:53:39.389Z,15.00
2023-05-07T02:54:40.960Z,14.43
2023-05-07T02:55:42.637Z,15.80
2023-05-07T02:56:44.279Z,15.75
2023-05-07T02:57:45.816Z,15.68
2023-05-07T02:58:47.362Z,14.82
2023-05-07T02:59:48.956Z,15.35
2023-05-07T03:00:50.661Z,14.95
2023-05-07T03:01:52.270Z,14.70
2023-05-07T03:02:53.852Z,14.80
2023-05-07T03:03:55.580Z,15.18
2023-05-07T03:04:57.206Z,14.75
2023-05-07T03:05:58.789Z,13.10
2023-05-07T03:07:00.493Z,14.07
2023-05-07T03:08:02.105Z,15.30
2023-05-07T03:09:03.931Z,14.13
2023-05-07T03:10:06.220Z,14.25
2023-05-07T03:11:07.768Z,15.80
2023-05-07T03:12:09.366Z,15.18
2023-05-07T03:13:11.040Z,15.20
2023-05-07T03:14:12.657Z,15.10
2023-05-07T03:15:14.342Z,14.73
2023-05-07T03:16:16.543Z,16.10
2023-05-07T03:17:18.099Z,15.30
2023-05-07T03:18:19.787Z,15.50
2023-05-07T03:19:21.372Z,14.50
2023-05-07T03:20:23.158Z,16.13
2023-05-07T03:21:24.861Z,15.50
2023-05-07T03:22:26.580Z,15.27
2023-05-07T03:23:28.181Z,16.20
2023-05-07T03:24:29.762Z,14.95
2023-05-07T03:25:31.665Z,15.15
2023-05-07T03:26:33.308Z,15.40
2023-05-07T03:27:34.919Z,14.98
2023-05-07T03:28:36.548Z,14.07
2023-05-07T03:29:38.118Z,15.82
2023-05-07T03:30:39.824Z,16.63
2023-05-07T03:31:41.424Z,15.63
2023-05-07T03:32:43.150Z,14.98
2023-05-07T03:33:52.922Z,14.98
2023-05-07T03:34:54.516Z,15.93
2023-05-07T03:35:56.228Z,15.10
2023-05-07T03:36:57.788Z,14.48
2023-05-07T03:37:59.360Z,15.23
2023-05-07T03:39:00.948Z,14.75
2023-05-07T03:40:03.184Z,15.20
2023-05-07T03:41:04.848Z,14.65
2023-05-07T03:42:06.458Z,15.65
2023-05-07T03:43:08.115Z,16.00
2023-05-07T03:44:09.672Z,16.15
2023-05-07T03:45:11.420Z,15.32
2023-05-07T03:46:13.045Z,16.40
2023-05-07T03:47:14.644Z,15.15
2023-05-07T03:48:16.180Z,15.50
2023-05-07T03:49:17.831Z,14.85
2023-05-07T03:50:20.402Z,14.70
2023-05-07T03:51:22.013Z,13.70
2023-05-07T03:52:26.815Z,12.60
2023-05-07T03:53:28.387Z,15.40
2023-05-07T03:54:30.749Z,14.70
2023-05-07T03:55:32.268Z,15.48
2023-05-07T03:56:33.968Z,14.85
2023-05-07T03:57:35.685Z,15.73
2023-05-07T03:58:37.244Z,13.23
2023-05-07T03:59:38.788Z,15.68
2023-05-07T04:00:41.504Z,15.95
2023-05-07T04:01:43.186Z,14.32
2023-05-07T04:02:44.969Z,14.55
2023-05-07T04:03:46.746Z,15.65
2023-05-07T04:04:50.586Z,14.85
2023-05-07T04:05:52.181Z,14.88
2023-05-07T04:06:54.063Z,14.43
2023-05-07T04:07:55.597Z,14.50
2023-05-07T04:08:57.431Z,15.10
2023-05-07T04:09:59.016Z,14.73
2023-05-07T04:11:01.190Z,14.50
2023-05-07T04:12:03.331Z,14.80
2023-05-07T04:13:05.023Z,14.27
2023-05-07T04:14:07.220Z,14.30
2023-05-07T04:15:09.148Z,14.38
2023-05-07T04:16:10.877Z,14.50
2023-05-07T04:17:12.621Z,14.40
2023-05-07T04:18:14.190Z,15.52
2023-05-07T04:19:15.822Z,14.05
2023-05-07T04:20:18.659Z,15.00
2023-05-07T04:21:21.884Z,13.93
2023-05-07T04:22:23.670Z,13.50
2023-05-07T04:23:25.284Z,13.75
2023-05-07T04:24:26.874Z,14.20
2023-05-07T04:25:28.544Z,13.25
2023-05-07T04:26:30.378Z,13.05
2023-05-07T04:27:31.972Z,13.60
2023-05-07T04:28:33.540Z,12.60
2023-05-07T04:29:35.561Z,11.77
2023-05-07T04:30:37.107Z,12.85
2023-05-07T04:31:38.724Z,12.70
2023-05-07T04:32:40.372Z,13.60
2023-05-07T04:33:42.043Z,11.82
2023-05-07T04:34:43.762Z,12.07
2023-05-07T04:35:45.417Z,12.10
2023-05-07T04:36:47.207Z,12.88
2023-05-07T04:37:48.987Z,11.50
2023-05-07T04:38:50.562Z,12.48
2023-05-07T04:39:52.126Z,13.25
2023-05-07T04:40:53.934Z,12.00
2023-05-07T04:41:55.564Z,11.85
2023-05-07T04:42:57.239Z,12.57
2023-05-07T04:43:59.883Z,12.68
2023-05-07T04:45:03.060Z,12.40
2023-05-07T04:46:04.710Z,11.70
2023-05-07T04:47:06.503Z,12.35
2023-05-07T04:48:09.658Z,12.00
2023-05-07T04:49:11.788Z,12.25
2023-05-07T04:50:13.606Z,12.80
2023-05-07T04:51:15.423Z,11.85
2023-05-07T04:52:17.740Z,12.05
2023-05-07T04:53:19.546Z,12.40
2023-05-07T04:54:21.146Z,12.40
2023-05-07T04:55:22.752Z,12.07
2023-05-07T04:56:24.386Z,12.30
2023-05-07T04:57:26.004Z,12.02
2023-05-07T04:58:28.387Z,11.95
2023-05-07T04:59:29.954Z,13.02
2023-05-07T05:00:31.783Z,12.75
2023-05-07T05:01:33.480Z,12.25
2023-05-07T05:02:35.395Z,12.32
2023-05-07T05:03:37.148Z,12.20
2023-05-07T05:04:38.864Z,12.27
2023-05-07T05:05:40.578Z,11.30
2023-05-07T05:06:42.204Z,13.10
2023-05-07T05:07:43.945Z,11.95
2023-05-07T05:08:45.612Z,12.25
2023-05-07T05:09:47.212Z,10.57
2023-05-07T05:10:50.688Z,12.48
2023-05-07T05:11:52.460Z,10.43
2023-05-07T05:12:54.176Z,10.85
2023-05-07T05:13:55.817Z,11.93
2023-05-07T05:14:57.437Z,11.52
2023-05-07T05:15:59.341Z,12.13
2023-05-07T05:17:01.021Z,11.18
2023-05-07T05:18:02.944Z,12.00
2023-05-07T05:19:04.624Z,11.73
2023-05-07T05:20:06.950Z,12.02
2023-05-07T05:21:09.038Z,11.70
2023-05-07T05:22:10.597Z,10.88
2023-05-07T05:23:12.245Z,11.90
2023-05-07T05:24:14.072Z,12.30
2023-05-07T05:25:16.109Z,11.77
2023-05-07T05:26:17.687Z,10.93
2023-05-07T05:27:19.284Z,11.15
2023-05-07T05:28:20.954Z,11.32
2023-05-07T05:29:22.598Z,12.98
2023-05-07T05:30:24.284Z,11.40
2023-05-07T05:31:25.952Z,11.55
2023-05-07T05:32:27.644Z,11.63
2023-05-07T05:33:29.221Z,11.52
2023-05-07T05:34:30.988Z,11.25
2023-05-07T05:35:32.769Z,11.95
2023-05-07T05:36:34.402Z,11.52
2023-05-07T05:37:36.014Z,11.18
2023-05-07T05:38:37.741Z,11.15
2023-05-07T05:39:39.540Z,11.25
2023-05-07T05:40:41.160Z,11.40
2023-05-07T05:41:42.785Z,10.93
2023-05-07T05:42:44.444Z,11.30
2023-05-07T05:43:46.010Z,11.50
2023-05-07T05:44:47.597Z,11.80
2023-05-07T05:45:49.235Z,11.38
2023-05-07T05:46:51.007Z,12.23
2023-05-07T05:47:52.791Z,10.68
2023-05-07T05:48:54.404Z,11.88
2023-05-07T05:49:56.041Z,11.40
2023-05-07T05:50:57.600Z,11.40
2023-05-07T05:51:59.173Z,10.90
2023-05-07T05:53:00.699Z,12.27
2023-05-07T05:54:02.273Z,11.00
2023-05-07T05:55:04.113Z,11.30
2023-05-07T05:56:06.194Z,11.27
2023-05-07T05:57:08.015Z,10.98
2023-05-07T05:58:10.343Z,10.60
2023-05-07T05:59:12.029Z,11.13
2023-05-07T06:00:14.413Z,11.70
2023-05-07T06:01:16.251Z,11.02
2023-05-07T06:02:17.962Z,11.05
2023-05-07T06:03:19.606Z,10.18
2023-05-07T06:04:21.265Z,11.95
2023-05-07T06:05:23.047Z,11.55
2023-05-07T06:06:24.999Z,11.15
2023-05-07T06:07:26.634Z,10.57
2023-05-07T06:08:31.282Z,11.02
2023-05-07T06:09:32.828Z,10.77
2023-05-07T06:10:34.514Z,11.20
2023-05-07T06:11:36.121Z,10.52
2023-05-07T06:12:37.789Z,10.88
2023-05-07T06:13:39.443Z,11.20
2023-05-07T06:14:41.860Z,10.85
2023-05-07T06:15:43.484Z,10.95
2023-05-07T06:16:45.599Z,10.50
2023-05-07T06:17:47.245Z,11.23
2023-05-07T06:18:48.885Z,11.15
2023-05-07T06:19:50.504Z,9.93
2023-05-07T06:20:53.151Z,11.15
2023-05-07T06:21:55.107Z,10.50
2023-05-07T06:22:56.677Z,12.10
2023-05-07T06:23:58.320Z,10.73
2023-05-07T06:24:59.978Z,12.10
2023-05-07T06:26:01.598Z,10.25
2023-05-07T06:27:03.182Z,10.63
2023-05-07T06:28:05.164Z,10.45
2023-05-07T06:29:07.572Z,10.70
2023-05-07T06:30:09.960Z,12.27
2023-05-07T06:31:21.546Z,10.88
2023-05-07T06:32:23.406Z,9.68
2023-05-07T06:33:25.201Z,10.38
2023-05-07T06:34:26.803Z,9.32
2023-05-07T06:35:28.477Z,9.93
2023-05-07T06:36:30.569Z,9.95
2023-05-07T06:37:32.278Z,9.45
2023-05-07T06:38:33.859Z,9.32
2023-05-07T06:39:35.866Z,9.95
2023-05-07T06:40:37.624Z,9.60
2023-05-07T06:41:40.077Z,8.52
2023-05-07T06:42:41.707Z,9.13
2023-05-07T06:43:43.233Z,8.30
2023-05-07T06:44:44.805Z,8.85
2023-05-07T06:45:46.378Z,8.27
2023-05-07T06:46:48.233Z,7.85
2023-05-07T06:47:50.041Z,8.50
2023-05-07T06:48:51.741Z,7.38
2023-05-07T06:49:53.450Z,7.82
2023-05-07T06:50:56.708Z,7.72
2023-05-07T06:51:58.525Z,7.65
2023-05-07T06:53:00.295Z,7.78
2023-05-07T06:54:01.874Z,7.43
2023-05-07T06:55:03.698Z,8.15
2023-05-07T06:56:05.811Z,6.88
2023-05-07T06:57:08.092Z,7.85
2023-05-07T06:58:09.756Z,7.35
2023-05-07T06:59:11.383Z,7.85
2023-05-07T07:00:14.189Z,7.97
2023-05-07T07:01:16.184Z,7.65
2023-05-07T07:02:18.544Z,7.45
2023-05-07T07:03:20.295Z,6.80
2023-05-07T07:04:24.036Z,7.53
2023-05-07T07:05:25.683Z,7.65
2023-05-07T07:06:27.900Z,6.35
2023-05-07T07:07:29.553Z,7.30
2023-05-07T07:08:31.267Z,7.30
2023-05-07T07:09:32.845Z,7.00
2023-05-07T07:10:34.564Z,7.43
2023-05-07T07:11:36.278Z,7.20
2023-05-07T07:12:37.926Z,7.70
2023-05-07T07:13:41.007Z,6.65
2023-05-07T07:14:42.672Z,5.53
2023-05-07T07:15:44.647Z,6.25
2023-05-07T07:16:47.750Z,7.38
2023-05-07T07:17:50.000Z,6.47
2023-05-07T07:18:52.171Z,6.85
2023-05-07T07:19:53.814Z,6.75
2023-05-07T07:20:55.638Z,7.35
2023-05-07T07:21:57.201Z,6.55
2023-05-07T07:22:58.988Z,6.93
2023-05-07T07:24:00.569Z,7.50
2023-05-07T07:25:02.233Z,6.47
2023-05-07T07:26:03.810Z,6.85
2023-05-07T07:27:05.888Z,6.72
2023-05-07T07:28:07.908Z,6.55
2023-05-07T07:29:09.518Z,6.95
2023-05-07T07:30:11.481Z,6.85
2023-05-07T07:31:14.073Z,7.05
2023-05-07T07:32:15.852Z,7.05
2023-05-07T07:33:17.642Z,7.03
2023-05-07T07:34:19.265Z,6.60
2023-05-07T07:35:20.886Z,7.00
2023-05-07T07:36:23.771Z,6.78
2023-05-07T07:37:29.066Z,7.28
2023-05-07T07:38:30.720Z,7.35
2023-05-07T07:39:33.137Z,6.57
2023-05-07T07:40:37.410Z,7.32
2023-05-07T07:41:38.987Z,6.55
2023-05-07T07:42:40.551Z,6.80
2023-05-07T07:43:42.188Z,7.28
2023-05-07T07:44:43.812Z,7.20
2023-05-07T07:45:46.823Z,6.93
2023-05-07T07:46:48.469Z,6.50
2023-05-07T07:47:50.417Z,7.70
2023-05-07T07:48:52.039Z,7.10
2023-05-07T07:49:53.688Z,7.00
2023-05-07T07:50:55.338Z,6.70
2023-05-07T07:51:59.840Z,6.63
2023-05-07T07:53:01.667Z,7.18
2023-05-07T07:54:03.904Z,6.90
2023-05-07T07:55:06.278Z,8.30
2023-05-07T07:56:07.991Z,7.72
2023-05-07T07:57:10.117Z,6.50
2023-05-07T07:58:11.743Z,7.15
2023-05-07T07:59:14.829Z,7.47
2023-05-07T08:00:17.466Z,6.65
2023-05-07T08:01:19.025Z,6.70
2023-05-07T08:02:20.763Z,6.65
2023-05-07T08:03:22.893Z,7.20
2023-05-07T08:04:24.647Z,6.68
2023-05-07T08:05:26.323Z,7.15
2023-05-07T08:06:27.934Z,6.85
2023-05-07T08:07:29.553Z,7.15
2023-05-07T08:08:31.177Z,7.93
2023-05-07T08:09:32.828Z,7.25
2023-05-07T08:10:35.789Z,6.82
2023-05-07T08:11:37.574Z,7.60
2023-05-07T08:12:39.210Z,7.05
2023-05-07T08:13:40.927Z,6.50
2023-05-07T08:14:42.586Z,7.20
2023-05-07T08:15:44.207Z,7.35
2023-05-07T08:16:45.852Z,7.32
2023-05-07T08:17:47.661Z,6.35
2023-05-07T08:18:49.458Z,7.20
2023-05-07T08:19:51.097Z,6.03
2023-05-07T08:20:52.742Z,6.97
2023-05-07T08:21:54.343Z,6.78
2023-05-07T08:22:55.983Z,7.25
2023-05-07T08:23:57.640Z,7.38
2023-05-07T08:24:59.269Z,6.78
2023-05-07T08:26:01.197Z,6.65
2023-05-07T08:27:02.832Z,6.10
2023-05-07T08:28:04.534Z,6.15
2023-05-07T08:29:06.162Z,6.55
2023-05-07T08:30:08.697Z,6.72
2023-05-07T08:31:10.637Z,6.90
2023-05-07T08:32:12.284Z,7.05
2023-05-07T08:33:13.974Z,6.55
2023-05-07T08:34:15.644Z,6.47
2023-05-07T08:35:17.326Z,7.30
2023-05-07T08:36:20.265Z,6.57
2023-05-07T08:37:21.978Z,6.55
2023-05-07T08:38:23.762Z,7.57
2023-05-07T08:39:25.372Z,6.82
2023-05-07T08:40:27.807Z,6.30
2023-05-07T08:41:29.799Z,6.90
2023-05-07T08:42:36.229Z,6.97
2023-05-07T08:43:41.609Z,6.68
2023-05-07T08:44:47.870Z,6.70
2023-05-07T08:45:54.275Z,7.00
2023-05-07T08:46:57.383Z,7.20
2023-05-07T08:48:06.300Z,7.05
2023-05-07T08:49:08.667Z,7.45
2023-05-07T08:50:10.847Z,6.90
2023-05-07T08:51:17.758Z,6.80
2023-05-07T08:52:20.996Z,7.07
2023-05-07T08:53:22.780Z,7.60
2023-05-07T08:54:25.852Z,7.32
2023-05-07T08:55:29.437Z,7.20
2023-05-07T08:56:31.120Z,7.60
2023-05-07T08:57:32.738Z,7.80
2023-05-07T08:58:34.377Z,7.30
2023-05-07T08:59:36.739Z,7.28
2023-05-07T09:00:39.736Z,7.32
2023-05-07T09:01:41.636Z,8.30
2023-05-07T09:02:43.378Z,8.50
2023-05-07T09:03:46.876Z,7.18
2023-05-07T09:04:48.577Z,8.00
2023-05-07T09:05:50.124Z,8.00
2023-05-07T09:06:52.638Z,8.02
2023-05-07T09:07:58.306Z,7.57
2023-05-07T09:09:02.130Z,7.95
2023-05-07T09:10:07.584Z,7.88
2023-05-07T09:11:09.316Z,8.05
2023-05-07T09:12:10.958Z,7.50
2023-05-07T09:13:15.322Z,9.13
2023-05-07T09:14:17.004Z,8.13
2023-05-07T09:15:19.538Z,8.65
2023-05-07T09:16:22.874Z,8.30
2023-05-07T09:17:24.617Z,7.88
2023-05-07T09:18:26.672Z,7.78
2023-05-07T09:19:28.711Z,8.65
2023-05-07T09:20:32.042Z,8.43
2023-05-07T09:21:33.681Z,8.55
2023-05-07T09:22:38.431Z,8.50
2023-05-07T09:23:40.427Z,8.48
2023-05-07T09:24:48.059Z,8.57
2023-05-07T09:25:49.647Z,8.50
2023-05-07T09:26:51.218Z,8.75
2023-05-07T09:27:52.853Z,9.15
2023-05-07T09:28:54.476Z,9.10
2023-05-07T09:29:56.375Z,8.93
2023-05-07T09:30:58.120Z,8.65
2023-05-07T09:31:59.787Z,9.27
2023-05-07T09:33:04.832Z,9.18
2023-05-07T09:34:06.587Z,10.13
2023-05-07T09:35:17.068Z,9.45
2023-05-07T09:36:19.145Z,9.55
2023-05-07T09:37:21.048Z,9.68
2023-05-07T09:38:22.828Z,9.70
2023-05-07T09:39:25.020Z,8.85
2023-05-07T09:40:28.807Z,10.32
2023-05-07T09:41:33.177Z,10.60
2023-05-07T09:42:34.781Z,10.50
2023-05-07T09:43:37.950Z,9.85
2023-05-07T09:44:39.918Z,9.50
2023-05-07T09:45:42.261Z,9.70
2023-05-07T09:46:45.493Z,10.00
2023-05-07T09:47:49.405Z,10.68
2023-05-07T09:48:53.680Z,10.45
2023-05-07T09:49:58.882Z,9.55
2023-05-07T09:51:03.534Z,11.10
2023-05-07T09:52:07.490Z,9.68
2023-05-07T09:53:11.468Z,10.68
2023-05-07T09:54:13.373Z,10.90
2023-05-07T09:55:16.261Z,10.73
2023-05-07T09:56:19.387Z,10.63
2023-05-07T09:57:21.690Z,10.68
2023-05-07T09:58:24.656Z,10.45
2023-05-07T09:59:29.956Z,11.25
2023-05-07T10:00:33.328Z,11.25
2023-05-07T10:01:37.540Z,11.02
2023-05-07T10:02:47.325Z,10.48
2023-05-07T10:03:51.359Z,10.68
2023-05-07T10:04:53.803Z,10.85
2023-05-07T10:05:55.909Z,11.10
2023-05-07T10:06:58.305Z,10.63
2023-05-07T10:08:02.119Z,11.70
2023-05-07T10:09:06.591Z,10.23
2023-05-07T10:10:10.081Z,10.90
2023-05-07T10:11:12.426Z,11.02
2023-05-07T10:12:14.322Z,10.65
2023-05-07T10:13:16.252Z,11.18
2023-05-07T10:14:18.532Z,11.35
2023-05-07T10:15:20.665Z,10.63
2023-05-07T10:16:22.591Z,11.18
2023-05-07T10:17:25.014Z,11.20
2023-05-07T10:18:30.806Z,11.25
2023-05-07T10:19:34.034Z,11.32
2023-05-07T10:20:37.692Z,11.15
2023-05-07T10:21:40.818Z,10.50
2023-05-07T10:22:46.232Z,11.43
2023-05-07T10:23:54.328Z,12.30
2023-05-07T10:25:00.485Z,11.30
2023-05-07T10:26:06.567Z,11.65
2023-05-07T10:27:15.369Z,10.50
2023-05-07T10:28:18.679Z,11.38
2023-05-07T10:29:26.201Z,11.80
2023-05-07T10:30:47.270Z,11.63
2023-05-07T10:32:17.399Z,12.50
2023-05-07T10:33:23.017Z,12.10
2023-05-07T10:34:30.248Z,12.25
2023-05-07T10:35:37.028Z,12.32
2023-05-07T10:36:40.102Z,11.13
2023-05-07T10:37:42.419Z,11.60
2023-05-07T10:38:44.337Z,11.73
2023-05-07T10:39:46.438Z,11.25
2023-05-07T10:40:48.642Z,12.32
2023-05-07T10:41:50.900Z,11.90
2023-05-07T10:43:08.564Z,11.57
2023-05-07T10:44:12.391Z,11.82
2023-05-07T10:45:15.118Z,11.40
2023-05-07T10:46:23.027Z,12.43
2023-05-07T10:47:24.770Z,12.90
2023-05-07T10:48:29.623Z,12.45
2023-05-07T10:49:32.122Z,11.90
2023-05-07T10:50:33.871Z,11.73
2023-05-07T10:51:36.444Z,11.90
2023-05-07T10:52:38.068Z,12.50
2023-05-07T10:53:39.644Z,10.75
2023-05-07T10:54:41.309Z,11.70
2023-05-07T10:55:43.058Z,12.48
2023-05-07T10:56:44.812Z,12.30
2023-05-07T10:57:46.521Z,12.05
2023-05-07T10:58:48.142Z,12.95
2023-05-07T10:59:50.016Z,12.30
2023-05-07T11:00:52.617Z,12.95
2023-05-07T11:01:56.303Z,11.65
2023-05-07T11:03:03.768Z,12.68
2023-05-07T11:04:19.202Z,13.25
2023-05-07T11:05:24.573Z,12.00
2023-05-07T11:06:26.619Z,12.93
2023-05-07T11:07:29.687Z,12.93
2023-05-07T11:08:53.294Z,14.73
2023-05-07T11:09:56.784Z,13.70
2023-05-07T11:10:59.406Z,14.20
2023-05-07T11:12:01.328Z,13.52
2023-05-07T11:13:03.116Z,12.63
2023-05-07T11:14:04.813Z,12.45
2023-05-07T11:15:08.705Z,13.45
2023-05-07T11:16:21.125Z,13.60
2023-05-07T11:17:22.910Z,12.55
2023-05-07T11:18:24.623Z,13.52
2023-05-07T11:19:57.236Z,12.00
2023-05-07T11:21:00.495Z,13.00
2023-05-07T11:22:02.160Z,13.18
2023-05-07T11:23:03.796Z,13.15
2023-05-07T11:24:06.834Z,13.00
2023-05-07T11:25:08.452Z,14.55
2023-05-07T11:26:12.199Z,12.60
2023-05-07T11:27:14.379Z,14.02
2023-05-07T11:28:16.351Z,12.18
2023-05-07T11:29:23.368Z,12.90
2023-05-07T11:30:25.322Z,13.27
2023-05-07T11:31:29.702Z,12.93
2023-05-07T11:32:33.151Z,13.52
2023-05-07T11:33:35.646Z,13.77
2023-05-07T11:34:37.639Z,12.63
2023-05-07T11:35:39.465Z,13.77
2023-05-07T11:36:45.033Z,13.02
2023-05-07T11:37:48.016Z,12.52
2023-05-07T11:38:49.854Z,14.50
2023-05-07T11:39:59.100Z,12.38
2023-05-07T11:41:01.693Z,13.63
2023-05-07T11:42:03.550Z,13.88
2023-05-07T11:43:14.376Z,13.30
2023-05-07T11:44:15.976Z,12.60
2023-05-07T11:45:26.294Z,12.47
2023-05-07T11:46:28.851Z,13.23
2023-05-07T11:47:34.762Z,13.07
2023-05-07T11:48:37.172Z,12.00
2023-05-07T11:49:38.872Z,13.30
2023-05-07T11:50:54.486Z,12.82
2023-05-07T11:51:57.159Z,13.53
2023-05-07T11:52:58.766Z,12.07
2023-05-07T11:54:00.615Z,12.83
2023-05-07T11:55:04.538Z,12.30
2023-05-07T11:56:09.782Z,14.23
2023-05-07T11:57:16.126Z,13.00
2023-05-07T11:58:23.645Z,12.97
2023-05-07T11:59:25.306Z,12.40
2023-05-07T12:00:26.967Z,12.73
2023-05-07T12:01:28.530Z,12.90
2023-05-07T12:02:30.235Z,12.40
2023-05-07T12:03:35.579Z,13.33
2023-05-07T12:04:39.523Z,12.37
2023-05-07T12:05:42.852Z,12.00
2023-05-07T12:06:44.590Z,13.23
2023-05-07T12:07:46.297Z,14.00
2023-05-07T12:08:48.569Z,12.47
2023-05-07T12:09:51.277Z,12.40
2023-05-07T12:10:53.305Z,13.60
2023-05-07T12:11:57.022Z,12.87
2023-05-07T12:12:58.646Z,13.57
2023-05-07T12:14:01.597Z,13.80
2023-05-07T12:15:04.271Z,13.20
2023-05-07T12:16:07.402Z,13.63
2023-05-07T12:17:14.475Z,14.17
2023-05-07T12:18:16.370Z,12.93
2023-05-07T12:19:18.083Z,12.00
2023-05-07T12:20:20.060Z,13.90
2023-05-07T12:21:22.684Z,12.93
2023-05-07T12:22:24.402Z,12.77
2023-05-07T12:23:26.313Z,13.40
2023-05-07T12:24:29.279Z,13.23
2023-05-07T12:25:36.919Z,11.90
2023-05-07T12:26:41.601Z,12.13
2023-05-07T12:27:43.300Z,12.17
2023-05-07T12:28:44.908Z,12.40
2023-05-07T12:29:50.286Z,13.03
2023-05-07T12:30:53.112Z,11.80
2023-05-07T12:31:54.784Z,12.20
2023-05-07T12:32:56.486Z,12.83
2023-05-07T12:33:58.118Z,12.57
2023-05-07T12:34:59.720Z,13.57
2023-05-07T12:36:06.597Z,11.80
2023-05-07T12:37:08.242Z,13.37
2023-05-07T12:38:12.266Z,13.33
2023-05-07T12:39:13.918Z,11.60
2023-05-07T12:40:15.848Z,12.30
2023-05-07T12:41:17.499Z,12.00
2023-05-07T12:42:27.167Z,12.67
2023-05-07T12:43:30.187Z,12.07
2023-05-07T12:44:35.783Z,12.10
2023-05-07T12:45:42.564Z,11.00
2023-05-07T12:46:44.271Z,11.37
2023-05-07T12:47:46.917Z,11.17
2023-05-07T12:48:49.268Z,12.10
2023-05-07T12:49:51.002Z,11.43
2023-05-07T12:50:57.063Z,11.73
2023-05-07T12:51:59.717Z,11.07
2023-05-07T12:53:01.550Z,12.23
2023-05-07T12:54:03.587Z,11.03
2023-05-07T12:55:09.661Z,11.77
2023-05-07T12:56:11.574Z,12.83
2023-05-07T12:57:13.215Z,11.63
2023-05-07T12:58:21.311Z,11.80
2023-05-07T12:59:38.126Z,12.27
2023-05-07T13:00:39.914Z,11.97
2023-05-07T13:01:44.867Z,12.03
2023-05-07T13:02:46.909Z,11.40
2023-05-07T13:03:51.303Z,11.53
2023-05-07T13:04:54.026Z,11.50
2023-05-07T13:05:59.178Z,10.73
2023-05-07T13:07:01.636Z,11.30
2023-05-07T13:08:03.264Z,11.87
2023-05-07T13:09:05.827Z,11.47
2023-05-07T13:10:08.135Z,11.43
2023-05-07T13:11:11.048Z,12.00
2023-05-07T13:12:12.656Z,10.40
2023-05-07T13:13:14.210Z,11.57
2023-05-07T13:14:16.349Z,10.93
2023-05-07T13:15:18.768Z,10.33
2023-05-07T13:16:22.322Z,11.60
2023-05-07T13:17:24.321Z,10.97
2023-05-07T13:18:27.328Z,10.40
2023-05-07T13:19:31.003Z,11.70
2023-05-07T13:20:33.201Z,11.50
2023-05-07T13:21:34.917Z,10.60
2023-05-07T13:22:37.194Z,11.57
2023-05-07T13:23:39.530Z,10.77
2023-05-07T13:24:42.689Z,11.13
2023-05-07T13:25:44.442Z,10.40
2023-05-07T13:26:46.375Z,10.77
2023-05-07T13:27:53.892Z,9.30
2023-05-07T13:29:01.350Z,10.63
2023-05-07T13:30:03.550Z,11.30
2023-05-07T13:31:05.256Z,10.90
2023-05-07T13:32:06.939Z,10.83
2023-05-07T13:33:09.261Z,10.60